Language selection

My Weather Profile Weather Topics  | 

Kingston to Cornwall: Past 24 Hour Conditions

 

West Bay of Fundy - 44490

10:00 PM ADT 26 September 2021Buoy position: 44.66N 66.37W
Disclaimer

This table is a summary of hourly weather conditions for the past 24 hours.
Please note that these observations might not always be representative of weather conditions over their associated marine area.

Date / Time
(ADT)
Wind(knots) Wave height(m) Wave period(s) Pressure(kPa) Air tempC) Water tempC)
26 September 2021
22:00 WNW 12 gust 15 0.7 4.7 100.6 16 15
21:00 W 15 gust 19 0.8 4.7 100.5 16 15
20:00 WSW 12 gust 15 0.7 5.0 100.4 16 15
19:00 W 11 gust 15 0.8 4.9 100.3 16 15
18:00 WNW 9 gust 12 0.8 4.5 100.2 16 15
17:00 N 14 gust 18 1.0 4.5 100.0 17 15
16:00 NW 18 gust 24 0.6 6.4 100.0 17 15
15:00 S 9 gust 13 0.7 6.8 100.0 16 15
14:00 NE 5 gust 6 0.7 6.6 100.1 16 15
13:00 ENE 14 gust 17 0.7 7.5 100.2 16 15
12:00 ENE 9 gust 11 0.8 7.6 100.4 16 15
11:00 SE 4 gust 6 0.7 7.3 100.6 17 15
10:00 E 11 gust 12 0.6 7.1 100.7 17 15
9:00 ENE 10 gust 12 0.6 8.1 100.8 16 15
8:00 ENE 7 gust 8 0.6 7.7 100.9 16 15
7:00 E 6 gust 7 0.6 7.6 101.0 16 15
6:00 E 10 gust 12 0.6 7.0 101.1 17 15
5:00 ESE 11 gust 13 0.6 6.4 101.1 17 15
4:00 ESE 10 gust 12 0.6 5.9 101.2 17 15
3:00 ESE 11 gust 13 0.6 5.8 101.3 16 15
2:00 ESE 10 gust 11 0.6 5.4 101.4 17 15
1:00 ESE 11 gust 12 0.7 4.8 101.5 17 15
0:00 ESE 12 gust 13 0.6 5.4 101.6 17 15
25 September 2021
23:00 SE 10 gust 12 0.6 5.7 101.6 17 15
22:00 SE 8 gust 9 0.5 5.7 101.7 17 15

Zoom-in to make a selection

Map of St. Lawrence - St. Lawrence River marine weather areas West Bay of Fundy - 44490 Mont-Louis - 45138 Lake Nipissing - 45152 North Bay Airport Beauport Deschambault Île d'Orléans L'Assomption Trois-Rivières Airport Île aux-Grues Lac Saint-Pierre Montréal-Trudeau Int'l Airport Saint-Hubert Airport Lac Memphrémagog Sainte-Anne-de-Bellevue Saint-Anicet Baie-Comeau Airport Cap-Rouge Île Rouge Pointe de l'Islet Pointe Claveau Sept-Îles Airport Pointe-des-Monts Pointe-Noire Cap-d'Espoir Rivière-la-Madeleine Gaspé Airport La Pocatière Mont-Joli Airport New Carlisle Pointe-au-Père Port Menier Île Bicquette Cap-Chat CFB Bagotville Jonquière Mistook Normandin Roberval Airport Bas Caraquet Bathurst Airport Bouctouche AAFC Charlo Miramichi Fundy Park (Alma) Grand Manan Kouchibouguac Miscou Island Greater Moncton Roméo LeBlanc Int'l Airport Point Lepreau Saint John Airport St. Stephen Brier Island Yarmouth Airport North Cape
Legend:
buoy Buoy
land station Land Station

St. Lawrence - St. Lawrence River Area

Another Region

What we are doing

Date modified: